createdAt,value
2022-07-28T20:12:38.308Z,2.30
2022-07-28T20:14:40.163Z,2.38
2022-07-28T20:16:42.841Z,2.88
2022-07-28T20:18:48.501Z,2.30
2022-07-28T20:20:50.345Z,2.47
2022-07-28T20:22:52.173Z,2.42
2022-07-28T20:24:54.054Z,2.90
2022-07-28T20:26:55.907Z,3.30
2022-07-28T20:28:58.591Z,3.75
2022-07-28T20:31:00.556Z,3.13
2022-07-28T20:33:04.060Z,3.08
2022-07-28T20:35:06.812Z,3.75
2022-07-28T20:37:24.522Z,4.30
2022-07-28T20:39:44.323Z,3.22
2022-07-28T20:41:50.255Z,2.35
2022-07-28T20:44:18.266Z,2.70
2022-07-28T20:46:14.612Z,2.20
2022-07-28T20:48:16.526Z,2.60
2022-07-28T20:50:20.260Z,2.50
2022-07-28T20:52:22.370Z,3.10
2022-07-28T20:54:25.253Z,3.35
2022-07-28T20:56:27.085Z,4.63
2022-07-28T20:58:28.914Z,5.85
2022-07-28T21:00:32.081Z,4.18
2022-07-28T21:02:34.818Z,4.13
2022-07-28T21:04:36.731Z,4.07
2022-07-28T21:06:38.926Z,3.38
2022-07-28T21:08:54.684Z,3.53
2022-07-28T21:10:56.767Z,3.22
2022-07-28T21:12:58.806Z,5.40
2022-07-28T21:15:00.876Z,9.98
2022-07-28T21:17:02.824Z,8.50
2022-07-28T21:19:05.849Z,6.88
2022-07-28T21:21:07.909Z,4.43
2022-07-28T21:23:09.888Z,4.18
2022-07-28T21:25:11.784Z,3.28
2022-07-28T21:27:13.620Z,3.20
2022-07-28T21:31:17.248Z,2.78
2022-07-28T21:33:23.052Z,2.45
2022-07-28T21:35:25.960Z,2.70
2022-07-28T21:37:27.922Z,2.28
2022-07-28T21:39:30.134Z,2.20
2022-07-28T21:41:36.422Z,2.30
2022-07-28T21:43:38.851Z,2.03
